Time;durP1;ratioP1;P1;durP2;ratioP2;P2;SDS_P1;SDS_P2;PMS_P1;PMS_P2;Temp;Humidity;BMP_temperature;BMP_pressure;BME280_temperature;BME280_humidity;BME280_pressure;Samples;Min_cycle;Max_cycle;Signal;HPM_P1;HPM_P2
2022/08/20 00:01:20;;;;;;;1999.90;999.90;;;21.70;99.90;;;;;;6746938;77;20247;-76
2022/08/20 00:11:25;;;;;;;1999.90;999.90;;;21.70;99.90;;;;;;6745725;87;20756;-75
2022/08/20 00:21:26;;;;;;;1999.90;999.90;;;21.80;99.90;;;;;;6745899;87;20184;-76
2022/08/20 00:31:27;;;;;;;1999.90;999.90;;;21.80;99.90;;;;;;6746685;87;20260;-77
2022/08/20 00:41:28;;;;;;;1999.90;999.90;;;21.80;99.90;;;;;;6746980;87;20837;-77
2022/08/20 00:51:38;;;;;;;1999.90;999.90;;;21.00;99.90;;;;;;6748955;87;20194;-76
2022/08/20 01:01:41;;;;;;;1999.90;999.90;;;20.30;99.90;;;;;;6748205;87;20713;-77
2022/08/20 01:11:41;;;;;;;1999.90;999.90;;;20.10;99.90;;;;;;6746329;87;20251;-76
2022/08/20 01:21:42;;;;;;;1999.90;999.90;;;19.80;99.90;;;;;;6745581;87;20210;-76
2022/08/20 01:31:43;;;;;;;1999.90;999.90;;;19.50;99.90;;;;;;6751915;87;20176;-74
2022/08/20 01:41:50;;;;;;;1999.90;999.90;;;19.40;99.90;;;;;;6749330;87;20339;-75
2022/08/20 01:51:57;;;;;;;1999.90;999.90;;;19.40;99.90;;;;;;6751993;87;20369;-77
2022/08/20 02:01:58;;;;;;;1999.90;999.90;;;19.20;99.90;;;;;;6750653;87;20184;-77
2022/08/20 02:11:59;;;;;;;1999.90;999.90;;;19.20;99.90;;;;;;6751606;87;20237;-76
2022/08/20 02:22:05;;;;;;;1999.90;999.90;;;19.20;99.90;;;;;;6757675;87;20200;-77
2022/08/20 02:32:07;;;;;;;1999.90;999.90;;;19.00;99.90;;;;;;6752310;87;20189;-77
2022/08/20 02:42:08;;;;;;;1999.90;999.90;;;19.00;99.90;;;;;;6746545;87;20208;-77
2022/08/20 02:52:08;;;;;;;1999.90;999.90;;;19.00;99.90;;;;;;6755628;87;20200;-77
2022/08/20 03:02:10;;;;;;;1999.90;999.90;;;19.10;99.90;;;;;;6748391;87;20200;-78
2022/08/20 03:12:11;;;;;;;1999.90;999.90;;;19.00;99.90;;;;;;6753123;88;20176;-77
2022/08/20 03:22:11;;;;;;;1999.90;999.90;;;19.10;99.90;;;;;;6751512;87;20352;-77
2022/08/20 03:32:12;;;;;;;1999.90;999.90;;;19.30;99.90;;;;;;6747261;88;20723;-76
2022/08/20 03:42:13;;;;;;;1999.90;999.90;;;19.40;99.90;;;;;;6750309;87;20689;-75
2022/08/20 03:52:14;;;;;;;1999.90;999.90;;;19.30;99.90;;;;;;6749974;87;20946;-76
2022/08/20 04:02:15;;;;;;;1999.90;999.90;;;19.60;99.90;;;;;;6747729;88;20200;-77
2022/08/20 04:12:15;;;;;;;1999.90;999.90;;;19.50;99.90;;;;;;6746546;87;20226;-77
2022/08/20 04:22:16;;;;;;;1999.90;999.90;;;19.50;99.90;;;;;;6745566;88;20624;-76
2022/08/20 04:32:16;;;;;;;1999.90;999.90;;;19.40;99.90;;;;;;6741683;87;20199;-76
2022/08/20 04:42:17;;;;;;;1999.90;999.90;;;19.60;99.90;;;;;;6746877;87;20191;-77
2022/08/20 04:52:17;;;;;;;1999.90;999.90;;;19.50;99.90;;;;;;6754313;87;20711;-77
2022/08/20 05:02:20;;;;;;;1999.90;999.90;;;19.60;99.90;;;;;;6749062;87;20221;-77
2022/08/20 05:12:20;;;;;;;1999.90;999.90;;;19.70;99.90;;;;;;6745048;87;20272;-77
2022/08/20 05:22:21;;;;;;;1999.90;999.90;;;19.60;99.90;;;;;;6748552;88;20172;-77
2022/08/20 05:32:22;;;;;;;1999.90;999.90;;;19.70;99.90;;;;;;6749170;87;20549;-76
2022/08/20 05:42:22;;;;;;;1999.90;999.90;;;19.70;99.90;;;;;;6754157;87;20237;-76
2022/08/20 05:52:23;;;;;;;1999.90;999.90;;;19.80;99.90;;;;;;6760866;87;21917;-77
2022/08/20 06:12:27;;;;;;;1999.90;999.90;;;19.90;99.90;;;;;;6770699;88;20220;-78
2022/08/20 06:22:27;;;;;;;1999.90;999.90;;;19.90;99.90;;;;;;6752490;88;20226;-78
2022/08/20 06:32:28;;;;;;;1999.90;999.90;;;19.70;99.90;;;;;;6752774;88;20200;-78
2022/08/20 06:42:28;;;;;;;1999.90;999.90;;;19.60;99.90;;;;;;6752066;88;20198;-79
2022/08/20 06:52:29;;;;;;;1999.90;999.90;;;19.70;99.90;;;;;;6745612;88;20275;-78
2022/08/20 07:02:29;;;;;;;1999.90;999.90;;;19.80;99.90;;;;;;6751975;87;20184;-78
2022/08/20 07:12:30;;;;;;;1999.90;999.90;;;20.20;99.90;;;;;;6749575;88;20230;-78
2022/08/20 07:22:34;;;;;;;1999.90;999.90;;;20.30;99.90;;;;;;6754962;88;20212;-79
2022/08/20 07:32:38;;;;;;;1999.90;999.90;;;20.40;99.90;;;;;;6760401;88;20206;-79
2022/08/20 07:42:39;;;;;;;1999.90;999.90;;;20.30;99.90;;;;;;6765835;88;20183;-80
2022/08/20 07:52:39;;;;;;;1999.90;999.90;;;20.30;99.90;;;;;;6766466;88;20669;-80
2022/08/20 08:02:40;;;;;;;1999.90;999.90;;;20.50;99.90;;;;;;6754401;88;20173;-80
2022/08/20 08:12:47;;;;;;;1999.90;999.90;;;21.50;99.90;;;;;;6764222;88;20218;-81
2022/08/20 08:22:48;;;;;;;1999.90;999.90;;;21.70;99.90;;;;;;6761601;88;20620;-80
2022/08/20 08:43:12;;;;;;;1999.90;999.90;;;22.50;99.90;;;;;;6762181;88;20329;-81
2022/08/20 08:53:23;;;;;;;1999.90;999.90;;;23.70;99.90;;;;;;6764212;87;20184;-80
2022/08/20 09:03:28;;;;;;;1999.90;999.90;;;24.00;99.90;;;;;;6763863;88;20625;-80
2022/08/20 09:13:29;;;;;;;1999.90;999.90;;;24.40;99.90;;;;;;6760756;88;20198;-80
2022/08/20 09:23:29;;;;;;;1999.90;999.90;;;24.00;99.90;;;;;;6757274;88;20808;-80
2022/08/20 09:33:30;;;;;;;1999.90;999.90;;;23.80;99.90;;;;;;6762079;88;20246;-81
2022/08/20 09:43:31;;;;;;;1999.90;999.90;;;24.50;99.90;;;;;;6772301;88;20181;-81
2022/08/20 09:53:31;;;;;;;1999.90;999.90;;;24.70;99.90;;;;;;6761649;88;20221;-80
2022/08/20 10:03:32;;;;;;;1999.90;999.90;;;26.00;99.90;;;;;;6748360;88;20187;-77
2022/08/20 10:13:32;;;;;;;1999.90;999.90;;;27.00;99.90;;;;;;6750751;88;20519;-78
2022/08/20 10:23:59;;;;;;;1999.90;999.90;;;26.60;99.90;;;;;;6748093;88;20197;-79
2022/08/20 10:34:19;;;;;;;1999.90;999.90;;;25.50;99.90;;;;;;6751284;88;20205;-78
2022/08/20 10:44:20;;;;;;;1999.90;999.90;;;27.00;99.90;;;;;;6746328;88;20206;-77
2022/08/20 10:54:20;;;;;;;1999.90;999.90;;;27.50;99.90;;;;;;6746922;88;20193;-78
2022/08/20 11:04:21;;;;;;;1999.90;999.90;;;27.40;99.90;;;;;;6750927;88;20226;-77
2022/08/20 11:14:22;;;;;;;1999.90;999.90;;;29.10;98.30;;;;;;6747746;88;20807;-78
2022/08/20 11:24:23;;;;;;;1999.90;999.90;;;28.80;97.90;;;;;;6756627;88;20180;-78
2022/08/20 11:34:24;;;;;;;1999.90;999.90;;;28.20;98.10;;;;;;6769878;88;20197;-79
2022/08/20 11:44:26;;;;;;;1999.90;999.90;;;28.70;97.50;;;;;;6766059;88;20213;-82
2022/08/20 11:54:27;;;;;;;1999.90;999.90;;;27.60;97.40;;;;;;6752918;88;20329;-79
2022/08/20 12:04:28;;;;;;;1999.90;999.90;;;27.60;97.70;;;;;;6754455;88;20173;-78
2022/08/20 12:14:29;;;;;;;1999.90;999.90;;;29.20;96.20;;;;;;6749575;88;20189;-78
2022/08/20 12:24:29;;;;;;;1999.90;999.90;;;28.30;96.60;;;;;;6748944;88;20188;-77
2022/08/20 12:34:30;;;;;;;1999.90;999.90;;;27.90;97.00;;;;;;6751016;88;20612;-78
2022/08/20 12:44:31;;;;;;;1999.90;999.90;;;27.10;97.40;;;;;;6750382;88;20196;-79
2022/08/20 12:54:31;;;;;;;1999.90;999.90;;;28.50;95.80;;;;;;6750357;88;20196;-78
2022/08/20 13:04:32;;;;;;;1999.90;999.90;;;29.30;94.00;;;;;;6746950;87;20225;-78
2022/08/20 13:14:32;;;;;;;1999.90;999.90;;;29.00;93.30;;;;;;6746682;87;21599;-78
2022/08/20 13:24:33;;;;;;;1999.90;999.90;;;29.10;93.20;;;;;;6750013;87;20177;-79
2022/08/20 13:34:33;;;;;;;1999.90;999.90;;;30.00;92.00;;;;;;6745589;87;20321;-77
2022/08/20 13:44:34;;;;;;;1999.90;999.90;;;29.50;91.90;;;;;;6750780;87;20202;-78
2022/08/20 13:54:34;;;;;;;1999.90;999.90;;;28.80;91.70;;;;;;6745654;88;20192;-78
2022/08/20 14:04:35;;;;;;;1999.90;999.90;;;28.80;91.20;;;;;;6746565;88;20206;-78
2022/08/20 14:14:36;;;;;;;1999.90;999.90;;;29.10;90.10;;;;;;6748938;87;20168;-79
2022/08/20 14:24:37;;;;;;;1999.90;999.90;;;28.90;87.60;;;;;;6750853;88;20896;-78
2022/08/20 14:34:38;;;;;;;1999.90;999.90;;;28.80;88.80;;;;;;6750407;87;20732;-78
2022/08/20 14:44:39;;;;;;;1999.90;999.90;;;29.30;88.50;;;;;;6747722;88;20236;-78
2022/08/20 14:54:40;;;;;;;1999.90;999.90;;;29.00;85.70;;;;;;6752452;88;20721;-78
2022/08/20 15:04:42;;;;;;;1999.90;999.90;;;29.20;85.50;;;;;;6750655;87;20306;-77
2022/08/20 15:14:43;;;;;;;1999.90;999.90;;;29.20;85.30;;;;;;6752039;88;20257;-79
2022/08/20 15:24:43;;;;;;;1999.90;999.90;;;29.20;83.10;;;;;;6752709;87;20197;-79
2022/08/20 15:34:44;;;;;;;1999.90;999.90;;;28.80;82.90;;;;;;6752804;88;20183;-80
2022/08/20 15:44:45;;;;;;;1999.90;999.90;;;28.30;83.70;;;;;;6763780;88;20684;-82
2022/08/20 15:54:46;;;;;;;1999.90;999.90;;;28.00;83.60;;;;;;6765454;88;20220;-77
2022/08/20 16:05:08;;;;;;;1999.90;999.90;;;28.00;80.10;;;;;;6766406;88;20982;-81
2022/08/20 16:15:16;;;;;;;1999.90;999.90;;;28.20;79.60;;;;;;6767309;88;20231;-80
2022/08/20 16:25:21;;;;;;;1999.90;999.90;;;27.90;78.60;;;;;;6744446;87;20286;-76
2022/08/20 16:35:30;;;;;;;1999.90;999.90;;;27.50;78.80;;;;;;6756226;88;20284;-78
2022/08/20 16:45:58;;;;;;;1999.90;999.90;;;27.00;79.40;;;;;;6750931;88;20180;-78
2022/08/20 16:55:59;;;;;;;1999.90;999.90;;;26.70;81.80;;;;;;6756503;88;20216;-79
2022/08/20 17:05:59;;;;;;;1999.90;999.90;;;26.20;84.00;;;;;;6759046;88;20638;-79
2022/08/20 17:16:06;;;;;;;1999.90;999.90;;;26.00;85.10;;;;;;6748256;88;20258;-79
2022/08/20 17:26:19;;;;;;;1999.90;999.90;;;25.80;85.50;;;;;;6746654;88;20189;-77
2022/08/20 17:36:21;;;;;;;1999.90;999.90;;;25.70;85.10;;;;;;6748037;88;20661;-78
2022/08/20 17:46:23;;;;;;;1999.90;999.90;;;25.60;85.00;;;;;;6745965;88;20215;-77
2022/08/20 17:56:32;;;;;;;1999.90;999.90;;;25.10;85.60;;;;;;6740813;88;20336;-78
2022/08/20 18:06:56;;;;;;;1999.90;999.90;;;24.70;86.80;;;;;;6754889;88;20243;-78
2022/08/20 18:17:31;;;;;;;1999.90;999.90;;;24.40;86.90;;;;;;6751101;88;20758;-78
2022/08/20 18:27:39;;;;;;;1999.90;999.90;;;24.20;87.50;;;;;;6750113;88;20189;-77
2022/08/20 18:37:40;;;;;;;1999.90;999.90;;;24.00;88.40;;;;;;6746037;88;20193;-77
2022/08/20 18:47:43;;;;;;;1999.90;999.90;;;23.70;89.40;;;;;;6763551;88;20202;-77
2022/08/20 18:57:56;;;;;;;;;;;23.60;90.20;;;;;;6758046;88;20649;-77
2022/08/20 19:08:00;;;;;;;1999.90;999.90;;;23.30;90.70;;;;;;6761119;88;20064;-76
2022/08/20 19:18:22;;;;;;;1999.90;999.90;;;23.10;91.30;;;;;;6748378;88;20259;-77
2022/08/20 19:28:31;;;;;;;1999.90;999.90;;;22.90;91.90;;;;;;6748080;88;20193;-77
2022/08/20 19:38:32;;;;;;;1999.90;999.90;;;22.60;92.50;;;;;;6749494;88;20200;-78
2022/08/20 19:48:55;;;;;;;1999.90;999.90;;;22.40;92.90;;;;;;6752682;88;20249;-77
2022/08/20 19:59:03;;;;;;;1999.90;999.90;;;22.20;93.70;;;;;;6750512;88;20737;-78
2022/08/20 20:09:23;;;;;;;1999.90;999.90;;;21.80;94.10;;;;;;6752174;88;20200;-79
2022/08/20 20:19:24;;;;;;;1999.90;999.90;;;21.70;95.00;;;;;;6751645;88;20221;-78
2022/08/20 20:29:32;;;;;;;1999.90;999.90;;;21.40;95.80;;;;;;6749155;88;20185;-79
2022/08/20 20:39:43;;;;;;;1999.90;999.90;;;21.20;96.40;;;;;;6753695;87;20200;-78
2022/08/20 20:50:03;;;;;;;1999.90;999.90;;;21.10;97.30;;;;;;6761495;88;20188;-77
2022/08/20 21:00:13;;;;;;;1999.90;999.90;;;20.90;98.10;;;;;;6753685;88;20748;-78
2022/08/20 21:10:15;;;;;;;1999.90;999.90;;;20.90;98.70;;;;;;6754301;87;20739;-77
2022/08/20 21:20:17;;;;;;;1999.90;999.90;;;20.60;99.90;;;;;;6759261;88;20751;-76
2022/08/20 21:30:27;;;;;;;1999.90;999.90;;;20.20;99.90;;;;;;6763658;88;20237;-77
2022/08/20 21:40:32;;;;;;;1999.90;999.90;;;20.00;99.90;;;;;;6765954;88;20173;-77
2022/08/20 21:50:43;;;;;;;1999.90;999.90;;;20.00;99.90;;;;;;6755872;88;20181;-77
2022/08/20 22:01:03;;;;;;;1999.90;999.90;;;19.70;99.90;;;;;;6751174;88;20780;-77
2022/08/20 22:11:07;;;;;;;1999.90;999.90;;;19.50;99.90;;;;;;6745666;88;20757;-77
2022/08/20 22:21:13;;;;;;;1999.90;999.90;;;19.50;99.90;;;;;;6746107;88;20200;-77
2022/08/20 22:31:19;;;;;;;1999.90;999.90;;;19.50;99.90;;;;;;6748621;88;20227;-77
2022/08/20 22:41:21;;;;;;;1999.90;999.90;;;19.40;99.90;;;;;;6747634;88;20207;-77
2022/08/20 22:51:31;;;;;;;1999.90;999.90;;;19.30;99.90;;;;;;6750796;88;20177;-77
2022/08/20 23:01:31;;;;;;;1999.90;999.90;;;19.20;99.90;;;;;;6749199;88;20200;-77
2022/08/20 23:11:32;;;;;;;1999.90;999.90;;;19.10;99.90;;;;;;6746915;88;20234;-77
2022/08/20 23:21:33;;;;;;;1999.90;999.90;;;19.10;99.90;;;;;;6749365;88;20230;-77
2022/08/20 23:31:33;;;;;;;1999.90;999.90;;;18.90;99.90;;;;;;6745806;88;20243;-77
2022/08/20 23:41:34;;;;;;;1999.90;999.90;;;18.90;99.90;;;;;;6750017;88;20206;-76
2022/08/20 23:51:34;;;;;;;1999.90;999.90;;;18.70;99.90;;;;;;6729487;88;20205;-77
